Wednesday, December 19, 2018, 3:47 PM GMT
Back to Local

CZBF, Bathurst Airport Aviation Weather Reporting Station

Location: , , Canada Lat: 47.633
Local Time: 3:47 PM GMT (15:47 GMT) Lon: -65.75
Time Zone: GMT Elev: 193 ft

Show me the last for .
Show Coded

Time T Td Feel RH Dir Speed Gust Alt SLP Vis Weather Sky Remarks
2018-12-19 15:00 21 10 4 62 290° 10 25 29.76 29.77 9 CLR None
2018-12-19 14:10 21 10 4 62 290° 17 28 29.77 29.78 9 CLR None
2018-12-19 14:00 21 10 3 62 290° 16 30 29.77 29.79 9 -SN CLR None
2018-12-19 13:42 19 10 0 67 290° 20 32 29.76 29.77 9 CLR None
2018-12-19 13:00 19 10 1 67 290° 13 26 29.75 29.76 9 -SN CLR None
2018-12-19 12:47 19 10 1 67 290° 13 26 29.74 29.76 9 -SN CLR None
2018-12-19 12:00 19 10 4 67 300° 8 18 29.74 29.76 9 FEW030 None
2018-12-19 11:00 19 10 4 67 310° 12 20 29.72 29.73 9 CLR None
2018-12-19 10:00 21 10 4 62 300° 12 25 29.70 29.72 9 CLR None
2018-12-19 09:00 21 10 4 62 320° 13 28 29.67 29.68 9 CLR None
2018-12-19 08:39 21 10 3 62 310° 15 31 29.66 29.68 9 CLR Pressure rising rapidly
2018-12-19 08:00 23 12 4 62 310° 21 38 29.64 29.65 9 -SN CLR Pressure rising rapidly
2018-12-19 07:39 23 12 3 62 310° 18 39 29.61 29.63 6 -SN CLR None
2018-12-19 07:28 23 12 2 62 310° 24 46 29.60 29.62 5 -SN CLR None
2018-12-19 07:00 23 12 4 62 320° 16 37 29.61 29.62 9 -SN CLR None
2018-12-19 06:58 23 12 4 62 310° 14 37 29.61 29.62 9 -SN CLR None
2018-12-19 06:39 23 12 6 62 300° 10 28 29.61 29.62 9 CLR Pressure rising rapidly
2018-12-19 06:25 23 12 4 62 310° 14 36 29.59 29.61 8 -SN CLR None
2018-12-19 06:16 23 12 7 62 310° 14 23 29.59 29.60 9 FEW042 None
2018-12-19 06:06 23 12 5 62 320° 12 30 29.58 29.60 9 -SN FEW042 None
2018-12-19 06:00 23 12 7 62 320° 12 25 29.58 29.60 9 FEW044 None
2018-12-19 05:40 25 12 8 58 320° 15 28 29.57 29.59 9 BKN046 None
2018-12-19 05:30 25 14 7 62 310° 15 32 29.57 29.59 9 -SN BKN046 None
2018-12-19 05:19 25 14 8 62 310° 14 28 29.57 29.58 9 OVC046 None
2018-12-19 05:06 25 14 8 62 320° 14 30 29.57 29.58 9 -SN OVC046 None
2018-12-19 05:00 25 14 9 62 320° 15 25 29.57 29.58 9 OVC046 None
2018-12-19 04:54 25 14 8 62 310° 13 28 29.56 29.58 9 OVC046 None
2018-12-19 04:28 25 14 7 62 310° 20 33 29.55 29.57 9 -SN OVC044 None
2018-12-19 04:24 27 14 10 58 300° 15 33 29.55 29.56 9 OVC044 None
2018-12-19 04:00 27 14 10 58 310° 20 31 29.54 29.55 9 -SN OVC044 None
2018-12-19 03:38 27 14 10 58 320° 14 33 29.54 29.55 9 -SN OVC044 None
2018-12-19 03:32 27 14 11 58 310° 14 26 29.53 29.54 9 OVC044 None
2018-12-19 03:04 27 14 10 58 310° 17 31 29.53 29.54 9 -SN OVC046 None
2018-12-19 03:00 27 14 12 58 320° 14 24 29.53 29.54 9 OVC046 None
2018-12-19 02:47 27 14 10 58 320° 16 32 29.53 29.54 9 OVC046 None
2018-12-19 02:35 27 14 10 58 310° 13 30 29.52 29.53 9 -SN OVC046 None
2018-12-19 02:33 27 14 10 58 310° 15 30 29.52 29.54 9 OVC046 None
2018-12-19 02:16 27 14 10 58 310° 16 30 29.52 29.53 9 -SN OVC046 None
2018-12-19 02:14 27 14 10 58 320° 18 30 29.52 29.53 9 OVC046 None
2018-12-19 02:00 27 14 12 58 320° 12 24 29.52 29.54 9 -SN OVC046 None
2018-12-19 01:52 27 14 11 58 310° 15 29 29.52 29.53 9 -SN OVC046 None
2018-12-19 01:50 27 14 11 58 300° 14 29 29.52 29.53 9 OVC046 None
2018-12-19 01:00 27 16 10 63 300° 22 32 29.51 29.52 9 -SN OVC044 None
2018-12-19 00:57 27 16 10 63 320° 14 32 29.51 29.52 9 OVC044 None
2018-12-19 00:32 25 16 7 68 310° 20 33 29.50 29.51 9 -SN SCT044 None
2018-12-19 00:29 25 16 7 68 310° 17 32 29.49 29.51 9 SCT044 None
2018-12-19 00:00 25 16 6 68 300° 21 38 29.49 29.50 8 -SN CLR None
2018-12-18 23:05 25 16 7 68 300° 18 35 29.46 29.47 9 -SN CLR None
2018-12-18 23:00 25 16 8 68 310° 16 30 29.46 29.47 9 CLR None
2018-12-18 22:56 25 16 8 68 300° 17 30 29.46 29.47 9 CLR None
2018-12-18 22:00 25 16 7 68 310° 16 32 29.43 29.44 9 -SN SCT075 None
2018-12-18 21:40 25 16 6 68 300° 17 38 29.43 29.44 7 -SN OVC075 None
2018-12-18 21:30 25 16 7 68 300° 20 36 29.42 29.44 5 -SN OVC075 None
2018-12-18 21:00 25 16 7 68 300° 16 33 29.42 29.43 7 -SN OVC075 None
2018-12-18 20:04 25 16 7 68 310° 16 35 29.39 29.41 6 -SN OVC065 None
2018-12-18 20:00 25 16 6 68 300° 16 39 29.39 29.40 5 -SN OVC065 None
2018-12-18 19:54 25 16 6 68 310° 22 41 29.38 29.40 5 -SN OVC065 None
2018-12-18 19:48 25 18 7 73 300° 13 33 29.39 29.40 6 -SN OVC065 None
2018-12-18 19:40 25 16 7 68 320° 20 35 29.38 29.40 5 -SN OVC065 None
2018-12-18 19:15 27 16 10 63 320° 17 30 29.37 29.38 7 -SN FEW048 BKN065 None
2018-12-18 19:05 25 16 6 68 310° 22 37 29.36 29.37 5 -SN SCT048 None
2018-12-18 19:00 25 18 7 73 300° 17 33 29.36 29.37 9 -SN SCT048 BKN060 None
2018-12-18 18:57 25 16 7 68 320° 20 35 29.36 29.37 9 -SN BKN048 BKN060 None
2018-12-18 18:52 27 18 9 68 310° 12 35 29.36 29.37 9 BKN048 BKN060 None
2018-12-18 18:40 27 18 10 68 310° 16 30 29.35 29.36 6 -SN FEW038 BKN048 BKN060 None
2018-12-18 18:35 27 18 11 68 310° 15 26 29.35 29.36 9 FEW038 SCT050 BKN060 None
2018-12-18 18:15 27 18 10 68 310° 14 33 29.35 29.36 9 -SN FEW039 OVC060 Pressure rising rapidly
2018-12-18 18:02 27 18 10 68 310° 18 33 29.33 29.35 4 -SN FEW038 BKN060 OVC130 None
2018-12-18 18:00 27 18 10 68 320° 16 33 29.33 29.34 6 -SN FEW036 BKN060 OVC130 None
2018-12-18 17:41 27 18 10 68 310° 18 32 29.33 29.34 9 -SN FEW027 OVC130 None
2018-12-18 17:38 27 18 11 68 320° 13 26 29.33 29.34 9 FEW027 OVC130 None
2018-12-18 17:26 27 18 10 68 320° 15 32 29.33 29.34 6 -SN FEW027 OVC130 None
2018-12-18 17:25 27 18 10 68 320° 14 32 29.33 29.34 5 -SN FEW027 OVC130 None
2018-12-18 17:14 27 18 9 68 320° 12 36 29.32 29.34 9 -SN OVC130 None
2018-12-18 17:08 27 18 11 68 310° 15 26 29.32 29.33 9 BKN130 None
2018-12-18 17:04 27 18 11 68 320° 14 28 29.32 29.33 7 -SN BKN130 Pressure rising rapidly
2018-12-18 17:00 27 18 10 68 310° 13 33 29.32 29.33 5 -SN BKN130 Pressure rising rapidly
2018-12-18 16:53 27 19 10 73 320° 18 33 29.31 29.32 9 -SN SCT130 None
2018-12-18 16:47 27 19 9 73 300° 17 38 29.31 29.32 3 -SN SCT130 None
2018-12-18 16:41 27 19 8 73 300° 22 39 29.30 29.32 2 -SN FEW140 None
2018-12-18 16:00 28 21 12 74 310° 17 35 29.30 29.32 3 -SN BKN055 None
2018-12-18 15:51 28 21 12 74 320° 22 33 29.30 29.32 4 -SN OVC055 None
2018-12-18 15:50 28 21 12 74 310° 22 33 29.30 29.32 6 -SN OVC055 None

Support USWX by starting your Amazon purchase here.